sensor_id;sensor_type;location;lat;lon;timestamp;P1;durP1;ratioP1;P2;durP2;ratioP2
7263;SDS011;3673;52.480;13.348;2023-03-01T00:00:03;28.88;;;13.75;;
7263;SDS011;3673;52.480;13.348;2023-03-01T00:02:32;26.88;;;12.40;;
7263;SDS011;3673;52.480;13.348;2023-03-01T00:04:59;22.73;;;12.20;;
7263;SDS011;3673;52.480;13.348;2023-03-01T00:07:27;24.45;;;13.15;;
7263;SDS011;3673;52.480;13.348;2023-03-01T00:09:54;26.17;;;13.73;;
7263;SDS011;3673;52.480;13.348;2023-03-01T00:12:21;27.42;;;13.93;;
7263;SDS011;3673;52.480;13.348;2023-03-01T00:14:48;26.33;;;13.23;;
7263;SDS011;3673;52.480;13.348;2023-03-01T00:17:15;23.13;;;13.38;;
7263;SDS011;3673;52.480;13.348;2023-03-01T00:19:42;27.15;;;12.90;;
7263;SDS011;3673;52.480;13.348;2023-03-01T00:22:08;27.48;;;12.77;;
7263;SDS011;3673;52.480;13.348;2023-03-01T00:24:36;23.95;;;12.80;;
7263;SDS011;3673;52.480;13.348;2023-03-01T00:27:03;28.27;;;12.90;;
7263;SDS011;3673;52.480;13.348;2023-03-01T00:29:30;23.60;;;12.90;;
7263;SDS011;3673;52.480;13.348;2023-03-01T00:31:57;26.08;;;13.93;;
7263;SDS011;3673;52.480;13.348;2023-03-01T00:34:24;28.27;;;13.23;;
7263;SDS011;3673;52.480;13.348;2023-03-01T00:36:50;27.75;;;13.70;;
7263;SDS011;3673;52.480;13.348;2023-03-01T00:39:17;21.85;;;12.50;;
7263;SDS011;3673;52.480;13.348;2023-03-01T00:41:45;29.27;;;14.10;;
7263;SDS011;3673;52.480;13.348;2023-03-01T00:44:12;25.70;;;13.15;;
7263;SDS011;3673;52.480;13.348;2023-03-01T00:46:39;31.33;;;13.50;;
7263;SDS011;3673;52.480;13.348;2023-03-01T00:49:05;26.48;;;14.25;;
7263;SDS011;3673;52.480;13.348;2023-03-01T00:51:33;27.70;;;13.65;;
7263;SDS011;3673;52.480;13.348;2023-03-01T00:54:00;29.20;;;14.07;;
7263;SDS011;3673;52.480;13.348;2023-03-01T00:56:28;27.73;;;14.45;;
7263;SDS011;3673;52.480;13.348;2023-03-01T00:58:57;29.17;;;14.20;;
7263;SDS011;3673;52.480;13.348;2023-03-01T01:01:25;28.65;;;14.23;;
7263;SDS011;3673;52.480;13.348;2023-03-01T01:03:55;24.88;;;15.18;;
7263;SDS011;3673;52.480;13.348;2023-03-01T01:06:26;26.25;;;14.02;;
7263;SDS011;3673;52.480;13.348;2023-03-01T01:08:55;24.85;;;13.80;;
7263;SDS011;3673;52.480;13.348;2023-03-01T01:11:22;27.50;;;12.75;;
7263;SDS011;3673;52.480;13.348;2023-03-01T01:13:51;28.75;;;13.20;;
7263;SDS011;3673;52.480;13.348;2023-03-01T01:16:20;25.88;;;13.15;;
7263;SDS011;3673;52.480;13.348;2023-03-01T01:18:49;26.30;;;13.77;;
7263;SDS011;3673;52.480;13.348;2023-03-01T01:21:17;27.17;;;13.07;;
7263;SDS011;3673;52.480;13.348;2023-03-01T01:23:47;26.88;;;13.52;;
7263;SDS011;3673;52.480;13.348;2023-03-01T01:26:15;23.17;;;12.50;;
7263;SDS011;3673;52.480;13.348;2023-03-01T01:28:45;26.30;;;13.15;;
7263;SDS011;3673;52.480;13.348;2023-03-01T01:31:12;26.48;;;12.45;;
7263;SDS011;3673;52.480;13.348;2023-03-01T01:33:41;25.75;;;13.93;;
7263;SDS011;3673;52.480;13.348;2023-03-01T01:36:08;26.38;;;13.85;;
7263;SDS011;3673;52.480;13.348;2023-03-01T01:38:36;28.15;;;12.93;;
7263;SDS011;3673;52.480;13.348;2023-03-01T01:41:04;30.52;;;14.32;;
7263;SDS011;3673;52.480;13.348;2023-03-01T01:43:33;30.58;;;14.50;;
7263;SDS011;3673;52.480;13.348;2023-03-01T01:46:04;26.00;;;13.63;;
7263;SDS011;3673;52.480;13.348;2023-03-01T01:48:39;25.08;;;13.02;;
7263;SDS011;3673;52.480;13.348;2023-03-01T01:51:13;28.63;;;13.80;;
7263;SDS011;3673;52.480;13.348;2023-03-01T01:53:44;27.73;;;13.30;;
7263;SDS011;3673;52.480;13.348;2023-03-01T01:56:14;25.95;;;12.57;;
7263;SDS011;3673;52.480;13.348;2023-03-01T01:58:44;27.48;;;14.38;;
7263;SDS011;3673;52.480;13.348;2023-03-01T02:01:12;24.95;;;13.13;;
7263;SDS011;3673;52.480;13.348;2023-03-01T02:03:39;24.10;;;12.85;;
7263;SDS011;3673;52.480;13.348;2023-03-01T02:06:12;24.40;;;12.25;;
7263;SDS011;3673;52.480;13.348;2023-03-01T02:08:43;25.80;;;12.38;;
7263;SDS011;3673;52.480;13.348;2023-03-01T02:11:13;27.70;;;12.45;;
7263;SDS011;3673;52.480;13.348;2023-03-01T02:13:41;22.38;;;13.65;;
7263;SDS011;3673;52.480;13.348;2023-03-01T02:16:08;23.13;;;12.60;;
7263;SDS011;3673;52.480;13.348;2023-03-01T02:18:37;23.73;;;13.35;;
7263;SDS011;3673;52.480;13.348;2023-03-01T02:21:11;28.50;;;13.93;;
7263;SDS011;3673;52.480;13.348;2023-03-01T02:23:57;23.08;;;13.82;;
7263;SDS011;3673;52.480;13.348;2023-03-01T02:26:34;23.50;;;13.50;;
7263;SDS011;3673;52.480;13.348;2023-03-01T02:29:09;27.92;;;13.07;;
7263;SDS011;3673;52.480;13.348;2023-03-01T02:31:35;29.25;;;13.02;;
7263;SDS011;3673;52.480;13.348;2023-03-01T02:34:09;20.75;;;12.50;;
7263;SDS011;3673;52.480;13.348;2023-03-01T02:36:39;28.08;;;14.05;;
7263;SDS011;3673;52.480;13.348;2023-03-01T02:39:12;25.58;;;13.40;;
7263;SDS011;3673;52.480;13.348;2023-03-01T02:41:46;28.63;;;13.93;;
7263;SDS011;3673;52.480;13.348;2023-03-01T02:44:17;24.90;;;12.40;;
7263;SDS011;3673;52.480;13.348;2023-03-01T02:46:46;27.55;;;12.00;;
7263;SDS011;3673;52.480;13.348;2023-03-01T02:49:18;25.50;;;12.80;;
7263;SDS011;3673;52.480;13.348;2023-03-01T02:51:54;28.48;;;14.13;;
7263;SDS011;3673;52.480;13.348;2023-03-01T02:54:48;21.00;;;12.32;;
7263;SDS011;3673;52.480;13.348;2023-03-01T02:57:21;25.75;;;13.18;;
7263;SDS011;3673;52.480;13.348;2023-03-01T02:59:50;40.30;;;18.85;;
7263;SDS011;3673;52.480;13.348;2023-03-01T03:02:20;36.97;;;17.25;;
7263;SDS011;3673;52.480;13.348;2023-03-01T03:05:01;30.25;;;16.05;;
7263;SDS011;3673;52.480;13.348;2023-03-01T03:07:31;33.88;;;15.50;;
7263;SDS011;3673;52.480;13.348;2023-03-01T03:10:00;26.52;;;14.25;;
7263;SDS011;3673;52.480;13.348;2023-03-01T03:12:27;26.48;;;13.38;;
7263;SDS011;3673;52.480;13.348;2023-03-01T03:14:55;26.08;;;13.05;;
7263;SDS011;3673;52.480;13.348;2023-03-01T03:17:22;25.20;;;12.98;;
7263;SDS011;3673;52.480;13.348;2023-03-01T03:19:49;24.83;;;13.38;;
7263;SDS011;3673;52.480;13.348;2023-03-01T03:22:16;25.58;;;13.40;;
7263;SDS011;3673;52.480;13.348;2023-03-01T03:24:42;29.60;;;15.57;;
7263;SDS011;3673;52.480;13.348;2023-03-01T03:27:09;28.58;;;14.45;;
7263;SDS011;3673;52.480;13.348;2023-03-01T03:29:36;25.83;;;14.40;;
7263;SDS011;3673;52.480;13.348;2023-03-01T03:32:04;29.33;;;14.07;;
7263;SDS011;3673;52.480;13.348;2023-03-01T03:34:32;26.63;;;14.23;;
7263;SDS011;3673;52.480;13.348;2023-03-01T03:36:58;26.33;;;13.23;;
7263;SDS011;3673;52.480;13.348;2023-03-01T03:39:26;23.35;;;13.85;;
7263;SDS011;3673;52.480;13.348;2023-03-01T03:41:53;27.60;;;15.75;;
7263;SDS011;3673;52.480;13.348;2023-03-01T03:44:21;25.55;;;14.63;;
7263;SDS011;3673;52.480;13.348;2023-03-01T03:46:47;24.23;;;14.48;;
7263;SDS011;3673;52.480;13.348;2023-03-01T03:49:15;23.95;;;14.30;;
7263;SDS011;3673;52.480;13.348;2023-03-01T03:51:44;25.45;;;13.38;;
7263;SDS011;3673;52.480;13.348;2023-03-01T03:54:11;24.27;;;14.15;;
7263;SDS011;3673;52.480;13.348;2023-03-01T03:56:38;25.92;;;13.43;;
7263;SDS011;3673;52.480;13.348;2023-03-01T03:59:05;28.00;;;13.48;;
7263;SDS011;3673;52.480;13.348;2023-03-01T04:01:31;26.45;;;12.98;;
7263;SDS011;3673;52.480;13.348;2023-03-01T04:03:58;27.95;;;12.55;;
7263;SDS011;3673;52.480;13.348;2023-03-01T04:06:30;24.55;;;12.77;;
7263;SDS011;3673;52.480;13.348;2023-03-01T04:08:57;25.38;;;13.25;;
7263;SDS011;3673;52.480;13.348;2023-03-01T04:11:25;26.90;;;14.75;;
7263;SDS011;3673;52.480;13.348;2023-03-01T04:13:52;23.77;;;12.63;;
7263;SDS011;3673;52.480;13.348;2023-03-01T04:16:21;25.05;;;15.57;;
7263;SDS011;3673;52.480;13.348;2023-03-01T04:18:48;23.95;;;13.15;;
7263;SDS011;3673;52.480;13.348;2023-03-01T04:21:15;32.53;;;19.48;;
7263;SDS011;3673;52.480;13.348;2023-03-01T04:23:43;26.98;;;15.27;;
7263;SDS011;3673;52.480;13.348;2023-03-01T04:26:10;39.15;;;16.42;;
7263;SDS011;3673;52.480;13.348;2023-03-01T04:28:37;25.80;;;16.70;;
7263;SDS011;3673;52.480;13.348;2023-03-01T04:31:08;30.15;;;15.80;;
7263;SDS011;3673;52.480;13.348;2023-03-01T04:33:42;28.60;;;16.17;;
7263;SDS011;3673;52.480;13.348;2023-03-01T04:36:11;26.13;;;15.20;;
7263;SDS011;3673;52.480;13.348;2023-03-01T04:38:40;31.17;;;16.95;;
7263;SDS011;3673;52.480;13.348;2023-03-01T04:41:09;22.45;;;13.13;;
7263;SDS011;3673;52.480;13.348;2023-03-01T04:43:37;29.58;;;14.07;;
7263;SDS011;3673;52.480;13.348;2023-03-01T04:46:04;27.15;;;13.77;;
7263;SDS011;3673;52.480;13.348;2023-03-01T04:48:35;28.95;;;15.82;;
7263;SDS011;3673;52.480;13.348;2023-03-01T04:51:03;24.60;;;13.98;;
7263;SDS011;3673;52.480;13.348;2023-03-01T04:53:31;24.63;;;14.00;;
7263;SDS011;3673;52.480;13.348;2023-03-01T04:56:01;25.38;;;12.75;;
7263;SDS011;3673;52.480;13.348;2023-03-01T04:58:30;26.02;;;13.93;;
7263;SDS011;3673;52.480;13.348;2023-03-01T05:00:57;26.23;;;14.30;;
7263;SDS011;3673;52.480;13.348;2023-03-01T05:03:23;30.30;;;13.38;;
7263;SDS011;3673;52.480;13.348;2023-03-01T05:05:51;30.02;;;13.63;;
7263;SDS011;3673;52.480;13.348;2023-03-01T05:08:18;27.33;;;12.85;;
7263;SDS011;3673;52.480;13.348;2023-03-01T05:10:46;26.25;;;13.35;;
7263;SDS011;3673;52.480;13.348;2023-03-01T05:13:16;27.13;;;13.05;;
7263;SDS011;3673;52.480;13.348;2023-03-01T05:15:48;25.35;;;13.05;;
7263;SDS011;3673;52.480;13.348;2023-03-01T05:18:19;56.10;;;28.05;;
7263;SDS011;3673;52.480;13.348;2023-03-01T05:20:46;38.92;;;20.08;;
7263;SDS011;3673;52.480;13.348;2023-03-01T05:23:13;27.55;;;15.75;;
7263;SDS011;3673;52.480;13.348;2023-03-01T05:25:40;33.00;;;16.25;;
7263;SDS011;3673;52.480;13.348;2023-03-01T05:28:07;27.10;;;13.98;;
7263;SDS011;3673;52.480;13.348;2023-03-01T05:30:38;28.98;;;15.48;;
7263;SDS011;3673;52.480;13.348;2023-03-01T05:33:06;25.75;;;14.88;;
7263;SDS011;3673;52.480;13.348;2023-03-01T05:35:38;25.50;;;14.93;;
7263;SDS011;3673;52.480;13.348;2023-03-01T05:38:06;28.45;;;15.02;;
7263;SDS011;3673;52.480;13.348;2023-03-01T05:40:33;25.52;;;13.90;;
7263;SDS011;3673;52.480;13.348;2023-03-01T05:43:01;30.80;;;14.95;;
7263;SDS011;3673;52.480;13.348;2023-03-01T05:45:30;28.55;;;14.82;;
7263;SDS011;3673;52.480;13.348;2023-03-01T05:47:58;26.20;;;14.57;;
7263;SDS011;3673;52.480;13.348;2023-03-01T05:50:26;32.05;;;16.45;;
7263;SDS011;3673;52.480;13.348;2023-03-01T05:53:00;26.38;;;13.98;;
7263;SDS011;3673;52.480;13.348;2023-03-01T05:55:29;34.55;;;15.50;;
7263;SDS011;3673;52.480;13.348;2023-03-01T05:57:57;28.95;;;16.02;;
7263;SDS011;3673;52.480;13.348;2023-03-01T06:00:26;29.17;;;14.70;;
7263;SDS011;3673;52.480;13.348;2023-03-01T06:02:53;38.60;;;18.00;;
7263;SDS011;3673;52.480;13.348;2023-03-01T06:05:21;43.40;;;22.52;;
7263;SDS011;3673;52.480;13.348;2023-03-01T06:07:50;35.70;;;20.42;;
7263;SDS011;3673;52.480;13.348;2023-03-01T06:10:18;33.95;;;19.38;;
7263;SDS011;3673;52.480;13.348;2023-03-01T06:12:46;27.67;;;16.15;;
7263;SDS011;3673;52.480;13.348;2023-03-01T06:15:14;34.30;;;16.40;;
7263;SDS011;3673;52.480;13.348;2023-03-01T06:17:43;31.42;;;17.98;;
7263;SDS011;3673;52.480;13.348;2023-03-01T06:20:12;25.20;;;15.13;;
7263;SDS011;3673;52.480;13.348;2023-03-01T06:22:41;34.80;;;16.38;;
7263;SDS011;3673;52.480;13.348;2023-03-01T06:25:11;41.67;;;19.58;;
7263;SDS011;3673;52.480;13.348;2023-03-01T06:27:39;31.35;;;18.27;;
7263;SDS011;3673;52.480;13.348;2023-03-01T06:30:07;36.92;;;20.10;;
7263;SDS011;3673;52.480;13.348;2023-03-01T06:32:37;33.47;;;17.63;;
7263;SDS011;3673;52.480;13.348;2023-03-01T06:35:07;30.13;;;16.33;;
7263;SDS011;3673;52.480;13.348;2023-03-01T06:37:35;27.45;;;17.08;;
7263;SDS011;3673;52.480;13.348;2023-03-01T06:40:02;28.67;;;17.25;;
7263;SDS011;3673;52.480;13.348;2023-03-01T06:42:34;30.10;;;16.58;;
7263;SDS011;3673;52.480;13.348;2023-03-01T06:45:01;29.00;;;16.75;;
7263;SDS011;3673;52.480;13.348;2023-03-01T06:47:28;36.25;;;17.75;;
7263;SDS011;3673;52.480;13.348;2023-03-01T06:49:58;29.95;;;17.15;;
7263;SDS011;3673;52.480;13.348;2023-03-01T06:52:27;26.13;;;16.30;;
7263;SDS011;3673;52.480;13.348;2023-03-01T06:54:54;30.17;;;16.88;;
7263;SDS011;3673;52.480;13.348;2023-03-01T06:57:21;34.85;;;17.98;;
7263;SDS011;3673;52.480;13.348;2023-03-01T06:59:49;33.03;;;16.33;;
7263;SDS011;3673;52.480;13.348;2023-03-01T07:02:16;26.70;;;16.10;;
7263;SDS011;3673;52.480;13.348;2023-03-01T07:04:42;31.30;;;16.40;;
7263;SDS011;3673;52.480;13.348;2023-03-01T07:07:09;29.52;;;15.75;;
7263;SDS011;3673;52.480;13.348;2023-03-01T07:09:36;65.10;;;33.97;;
7263;SDS011;3673;52.480;13.348;2023-03-01T07:12:03;84.22;;;38.30;;
7263;SDS011;3673;52.480;13.348;2023-03-01T07:14:31;48.17;;;25.17;;
7263;SDS011;3673;52.480;13.348;2023-03-01T07:16:59;61.97;;;26.45;;
7263;SDS011;3673;52.480;13.348;2023-03-01T07:19:26;68.72;;;33.83;;
7263;SDS011;3673;52.480;13.348;2023-03-01T07:21:53;85.03;;;42.60;;
7263;SDS011;3673;52.480;13.348;2023-03-01T07:24:20;71.05;;;37.88;;
7263;SDS011;3673;52.480;13.348;2023-03-01T07:26:48;38.45;;;19.40;;
7263;SDS011;3673;52.480;13.348;2023-03-01T07:29:15;36.35;;;19.80;;
7263;SDS011;3673;52.480;13.348;2023-03-01T07:31:43;33.85;;;18.52;;
7263;SDS011;3673;52.480;13.348;2023-03-01T07:34:11;32.58;;;17.27;;
7263;SDS011;3673;52.480;13.348;2023-03-01T07:36:38;32.33;;;18.95;;
7263;SDS011;3673;52.480;13.348;2023-03-01T07:39:08;31.08;;;16.65;;
7263;SDS011;3673;52.480;13.348;2023-03-01T07:41:35;30.15;;;18.45;;
7263;SDS011;3673;52.480;13.348;2023-03-01T07:44:02;28.00;;;15.60;;
7263;SDS011;3673;52.480;13.348;2023-03-01T07:46:29;30.90;;;16.67;;
7263;SDS011;3673;52.480;13.348;2023-03-01T07:48:56;33.05;;;17.13;;
7263;SDS011;3673;52.480;13.348;2023-03-01T07:51:24;30.80;;;18.05;;
7263;SDS011;3673;52.480;13.348;2023-03-01T07:53:51;30.40;;;15.43;;
7263;SDS011;3673;52.480;13.348;2023-03-01T07:56:18;28.83;;;14.57;;
7263;SDS011;3673;52.480;13.348;2023-03-01T07:58:48;24.40;;;13.93;;
7263;SDS011;3673;52.480;13.348;2023-03-01T08:01:26;22.77;;;12.52;;
7263;SDS011;3673;52.480;13.348;2023-03-01T08:03:53;21.63;;;13.45;;
7263;SDS011;3673;52.480;13.348;2023-03-01T08:06:20;23.63;;;13.18;;
7263;SDS011;3673;52.480;13.348;2023-03-01T08:08:48;21.20;;;12.88;;
7263;SDS011;3673;52.480;13.348;2023-03-01T08:11:14;23.13;;;12.82;;
7263;SDS011;3673;52.480;13.348;2023-03-01T08:13:42;19.25;;;11.65;;
7263;SDS011;3673;52.480;13.348;2023-03-01T08:16:10;20.67;;;13.48;;
7263;SDS011;3673;52.480;13.348;2023-03-01T08:18:39;18.83;;;11.68;;
7263;SDS011;3673;52.480;13.348;2023-03-01T08:21:07;20.85;;;11.20;;
7263;SDS011;3673;52.480;13.348;2023-03-01T08:23:36;21.85;;;12.73;;
7263;SDS011;3673;52.480;13.348;2023-03-01T08:26:05;18.75;;;11.20;;
7263;SDS011;3673;52.480;13.348;2023-03-01T08:28:34;17.08;;;10.82;;
7263;SDS011;3673;52.480;13.348;2023-03-01T08:31:01;17.58;;;11.93;;
7263;SDS011;3673;52.480;13.348;2023-03-01T08:33:29;24.40;;;11.38;;
7263;SDS011;3673;52.480;13.348;2023-03-01T08:36:02;14.98;;;9.07;;
7263;SDS011;3673;52.480;13.348;2023-03-01T08:38:31;16.83;;;8.30;;
7263;SDS011;3673;52.480;13.348;2023-03-01T08:40:59;14.63;;;7.35;;
7263;SDS011;3673;52.480;13.348;2023-03-01T08:43:28;13.95;;;7.10;;
7263;SDS011;3673;52.480;13.348;2023-03-01T08:45:55;14.13;;;6.03;;
7263;SDS011;3673;52.480;13.348;2023-03-01T08:48:22;9.55;;;5.68;;
7263;SDS011;3673;52.480;13.348;2023-03-01T08:50:49;10.40;;;6.35;;
7263;SDS011;3673;52.480;13.348;2023-03-01T08:53:16;8.10;;;5.40;;
7263;SDS011;3673;52.480;13.348;2023-03-01T08:55:43;9.40;;;6.15;;
7263;SDS011;3673;52.480;13.348;2023-03-01T08:58:09;10.35;;;5.63;;
7263;SDS011;3673;52.480;13.348;2023-03-01T09:00:40;21.73;;;8.23;;
7263;SDS011;3673;52.480;13.348;2023-03-01T09:03:07;10.52;;;6.47;;
7263;SDS011;3673;52.480;13.348;2023-03-01T09:05:34;9.98;;;5.65;;
7263;SDS011;3673;52.480;13.348;2023-03-01T09:08:01;8.00;;;5.45;;
7263;SDS011;3673;52.480;13.348;2023-03-01T09:10:29;10.65;;;5.22;;
7263;SDS011;3673;52.480;13.348;2023-03-01T09:12:56;11.52;;;6.25;;
7263;SDS011;3673;52.480;13.348;2023-03-01T09:15:23;10.10;;;5.25;;
7263;SDS011;3673;52.480;13.348;2023-03-01T09:17:53;10.50;;;5.57;;
7263;SDS011;3673;52.480;13.348;2023-03-01T09:20:20;14.75;;;5.70;;
7263;SDS011;3673;52.480;13.348;2023-03-01T09:22:47;16.08;;;6.70;;
7263;SDS011;3673;52.480;13.348;2023-03-01T09:25:14;11.98;;;5.35;;
7263;SDS011;3673;52.480;13.348;2023-03-01T09:27:41;10.85;;;5.78;;
7263;SDS011;3673;52.480;13.348;2023-03-01T09:30:08;9.73;;;5.10;;
7263;SDS011;3673;52.480;13.348;2023-03-01T09:32:36;14.32;;;5.43;;
7263;SDS011;3673;52.480;13.348;2023-03-01T09:35:09;9.75;;;5.20;;
7263;SDS011;3673;52.480;13.348;2023-03-01T09:37:36;7.68;;;4.95;;
7263;SDS011;3673;52.480;13.348;2023-03-01T09:40:05;9.75;;;5.20;;
7263;SDS011;3673;52.480;13.348;2023-03-01T09:42:45;7.97;;;4.13;;
7263;SDS011;3673;52.480;13.348;2023-03-01T09:45:22;7.35;;;4.40;;
7263;SDS011;3673;52.480;13.348;2023-03-01T09:47:55;8.90;;;4.85;;
7263;SDS011;3673;52.480;13.348;2023-03-01T09:50:24;8.48;;;4.35;;
7263;SDS011;3673;52.480;13.348;2023-03-01T09:53:00;8.70;;;3.63;;
7263;SDS011;3673;52.480;13.348;2023-03-01T09:55:31;10.07;;;4.85;;
7263;SDS011;3673;52.480;13.348;2023-03-01T09:58:06;7.85;;;3.83;;
7263;SDS011;3673;52.480;13.348;2023-03-01T10:00:56;6.65;;;3.95;;
7263;SDS011;3673;52.480;13.348;2023-03-01T10:03:31;13.80;;;3.85;;
7263;SDS011;3673;52.480;13.348;2023-03-01T10:06:08;6.93;;;4.25;;
7263;SDS011;3673;52.480;13.348;2023-03-01T10:08:40;11.02;;;4.43;;
7263;SDS011;3673;52.480;13.348;2023-03-01T10:11:21;8.20;;;4.60;;
7263;SDS011;3673;52.480;13.348;2023-03-01T10:13:54;13.70;;;5.30;;
7263;SDS011;3673;52.480;13.348;2023-03-01T10:16:28;10.48;;;4.45;;
7263;SDS011;3673;52.480;13.348;2023-03-01T10:19:06;6.30;;;3.45;;
7263;SDS011;3673;52.480;13.348;2023-03-01T10:21:43;8.50;;;5.38;;
7263;SDS011;3673;52.480;13.348;2023-03-01T10:24:12;10.60;;;4.75;;
7263;SDS011;3673;52.480;13.348;2023-03-01T10:26:46;10.27;;;5.03;;
7263;SDS011;3673;52.480;13.348;2023-03-01T10:29:19;16.50;;;7.43;;
7263;SDS011;3673;52.480;13.348;2023-03-01T10:31:53;10.68;;;5.15;;
7263;SDS011;3673;52.480;13.348;2023-03-01T10:34:22;17.10;;;7.20;;
7263;SDS011;3673;52.480;13.348;2023-03-01T10:36:57;12.15;;;6.15;;
7263;SDS011;3673;52.480;13.348;2023-03-01T10:39:34;11.85;;;5.70;;
7263;SDS011;3673;52.480;13.348;2023-03-01T10:42:02;9.90;;;5.22;;
7263;SDS011;3673;52.480;13.348;2023-03-01T10:44:39;13.85;;;6.20;;
7263;SDS011;3673;52.480;13.348;2023-03-01T10:47:16;11.82;;;4.78;;
7263;SDS011;3673;52.480;13.348;2023-03-01T10:49:53;10.88;;;6.43;;
7263;SDS011;3673;52.480;13.348;2023-03-01T10:52:30;13.18;;;7.45;;
7263;SDS011;3673;52.480;13.348;2023-03-01T10:55:01;11.48;;;5.25;;
7263;SDS011;3673;52.480;13.348;2023-03-01T10:57:43;11.77;;;6.28;;
7263;SDS011;3673;52.480;13.348;2023-03-01T11:00:15;14.27;;;5.72;;
7263;SDS011;3673;52.480;13.348;2023-03-01T11:02:47;9.45;;;5.75;;
7263;SDS011;3673;52.480;13.348;2023-03-01T11:05:18;15.40;;;6.53;;
7263;SDS011;3673;52.480;13.348;2023-03-01T11:07:51;12.18;;;6.25;;
7263;SDS011;3673;52.480;13.348;2023-03-01T11:10:21;9.63;;;5.68;;
7263;SDS011;3673;52.480;13.348;2023-03-01T11:12:51;10.50;;;5.78;;
7263;SDS011;3673;52.480;13.348;2023-03-01T11:15:20;11.25;;;5.60;;
7263;SDS011;3673;52.480;13.348;2023-03-01T11:17:52;10.18;;;5.82;;
7263;SDS011;3673;52.480;13.348;2023-03-01T11:20:27;9.15;;;5.88;;
7263;SDS011;3673;52.480;13.348;2023-03-01T11:22:59;12.02;;;6.82;;
7263;SDS011;3673;52.480;13.348;2023-03-01T11:25:33;9.05;;;5.43;;
7263;SDS011;3673;52.480;13.348;2023-03-01T11:28:04;11.75;;;5.32;;
7263;SDS011;3673;52.480;13.348;2023-03-01T11:30:34;8.85;;;5.72;;
7263;SDS011;3673;52.480;13.348;2023-03-01T11:33:11;9.25;;;5.30;;
7263;SDS011;3673;52.480;13.348;2023-03-01T11:35:46;15.00;;;5.40;;
7263;SDS011;3673;52.480;13.348;2023-03-01T11:40:54;7.85;;;4.40;;
7263;SDS011;3673;52.480;13.348;2023-03-01T11:46:04;8.32;;;4.88;;
7263;SDS011;3673;52.480;13.348;2023-03-01T11:49:01;9.00;;;4.57;;
7263;SDS011;3673;52.480;13.348;2023-03-01T11:51:52;12.30;;;5.97;;
7263;SDS011;3673;52.480;13.348;2023-03-01T11:54:30;10.10;;;6.03;;
7263;SDS011;3673;52.480;13.348;2023-03-01T11:57:14;7.40;;;4.43;;
7263;SDS011;3673;52.480;13.348;2023-03-01T12:00:12;7.80;;;4.63;;
7263;SDS011;3673;52.480;13.348;2023-03-01T12:05:57;9.60;;;4.82;;
7263;SDS011;3673;52.480;13.348;2023-03-01T12:09:15;5.72;;;3.15;;
7263;SDS011;3673;52.480;13.348;2023-03-01T12:12:00;6.72;;;3.40;;
7263;SDS011;3673;52.480;13.348;2023-03-01T12:14:51;5.93;;;3.15;;
7263;SDS011;3673;52.480;13.348;2023-03-01T12:17:38;3.85;;;3.22;;
7263;SDS011;3673;52.480;13.348;2023-03-01T12:20:27;4.32;;;3.15;;
7263;SDS011;3673;52.480;13.348;2023-03-01T12:23:13;9.02;;;2.97;;
7263;SDS011;3673;52.480;13.348;2023-03-01T12:25:55;6.88;;;4.05;;
7263;SDS011;3673;52.480;13.348;2023-03-01T12:28:39;4.40;;;3.10;;
7263;SDS011;3673;52.480;13.348;2023-03-01T12:31:29;6.65;;;3.17;;
7263;SDS011;3673;52.480;13.348;2023-03-01T12:37:36;12.20;;;5.90;;
7263;SDS011;3673;52.480;13.348;2023-03-01T12:40:21;7.65;;;5.90;;
7263;SDS011;3673;52.480;13.348;2023-03-01T12:43:29;7.22;;;3.50;;
7263;SDS011;3673;52.480;13.348;2023-03-01T12:46:13;4.72;;;3.50;;
7263;SDS011;3673;52.480;13.348;2023-03-01T12:48:49;6.80;;;3.40;;
7263;SDS011;3673;52.480;13.348;2023-03-01T12:51:29;5.10;;;2.90;;
7263;SDS011;3673;52.480;13.348;2023-03-01T12:53:59;5.55;;;3.60;;
7263;SDS011;3673;52.480;13.348;2023-03-01T12:56:34;5.63;;;3.20;;
7263;SDS011;3673;52.480;13.348;2023-03-01T12:59:07;8.75;;;4.20;;
7263;SDS011;3673;52.480;13.348;2023-03-01T13:01:42;5.93;;;3.90;;
7263;SDS011;3673;52.480;13.348;2023-03-01T13:04:45;4.75;;;3.20;;
7263;SDS011;3673;52.480;13.348;2023-03-01T13:07:29;5.05;;;3.20;;
7263;SDS011;3673;52.480;13.348;2023-03-01T13:12:53;9.82;;;3.75;;
7263;SDS011;3673;52.480;13.348;2023-03-01T13:15:38;6.80;;;3.80;;
7263;SDS011;3673;52.480;13.348;2023-03-01T13:20:59;12.38;;;4.38;;
7263;SDS011;3673;52.480;13.348;2023-03-01T13:23:30;10.32;;;3.83;;
7263;SDS011;3673;52.480;13.348;2023-03-01T13:26:03;5.70;;;4.03;;
7263;SDS011;3673;52.480;13.348;2023-03-01T13:28:49;11.82;;;5.05;;
7263;SDS011;3673;52.480;13.348;2023-03-01T13:37:26;5.80;;;3.75;;
7263;SDS011;3673;52.480;13.348;2023-03-01T13:40:00;7.40;;;4.90;;
7263;SDS011;3673;52.480;13.348;2023-03-01T13:42:48;4.85;;;3.50;;
7263;SDS011;3673;52.480;13.348;2023-03-01T13:45:17;6.93;;;3.38;;
7263;SDS011;3673;52.480;13.348;2023-03-01T13:47:52;11.27;;;5.80;;
7263;SDS011;3673;52.480;13.348;2023-03-01T13:50:24;7.60;;;3.65;;
7263;SDS011;3673;52.480;13.348;2023-03-01T13:52:55;4.88;;;3.33;;
7263;SDS011;3673;52.480;13.348;2023-03-01T13:55:27;7.90;;;3.50;;
7263;SDS011;3673;52.480;13.348;2023-03-01T13:58:05;6.25;;;3.50;;
7263;SDS011;3673;52.480;13.348;2023-03-01T14:00:46;10.63;;;3.53;;
7263;SDS011;3673;52.480;13.348;2023-03-01T14:03:15;5.55;;;3.80;;
7263;SDS011;3673;52.480;13.348;2023-03-01T14:05:58;7.57;;;3.63;;
7263;SDS011;3673;52.480;13.348;2023-03-01T14:08:32;8.52;;;4.20;;
7263;SDS011;3673;52.480;13.348;2023-03-01T14:14:34;5.70;;;3.92;;
7263;SDS011;3673;52.480;13.348;2023-03-01T14:17:16;6.10;;;3.55;;
7263;SDS011;3673;52.480;13.348;2023-03-01T14:20:00;9.63;;;4.22;;
7263;SDS011;3673;52.480;13.348;2023-03-01T14:22:37;6.75;;;3.72;;
7263;SDS011;3673;52.480;13.348;2023-03-01T14:25:16;6.63;;;3.35;;
7263;SDS011;3673;52.480;13.348;2023-03-01T14:27:50;7.93;;;5.50;;
7263;SDS011;3673;52.480;13.348;2023-03-01T14:30:22;31.13;;;18.83;;
7263;SDS011;3673;52.480;13.348;2023-03-01T14:32:53;7.00;;;3.53;;
7263;SDS011;3673;52.480;13.348;2023-03-01T14:35:25;5.15;;;3.40;;
7263;SDS011;3673;52.480;13.348;2023-03-01T14:37:53;3.97;;;3.13;;
7263;SDS011;3673;52.480;13.348;2023-03-01T14:40:24;4.47;;;3.10;;
7263;SDS011;3673;52.480;13.348;2023-03-01T14:42:53;5.00;;;3.25;;
7263;SDS011;3673;52.480;13.348;2023-03-01T14:45:25;2.95;;;2.50;;
7263;SDS011;3673;52.480;13.348;2023-03-01T14:47:55;8.13;;;3.65;;
7263;SDS011;3673;52.480;13.348;2023-03-01T14:50:29;7.22;;;3.67;;
7263;SDS011;3673;52.480;13.348;2023-03-01T14:52:58;6.07;;;3.42;;
7263;SDS011;3673;52.480;13.348;2023-03-01T14:55:29;6.78;;;4.10;;
7263;SDS011;3673;52.480;13.348;2023-03-01T14:57:59;5.07;;;2.80;;
7263;SDS011;3673;52.480;13.348;2023-03-01T15:00:31;3.75;;;2.47;;
7263;SDS011;3673;52.480;13.348;2023-03-01T15:03:02;9.93;;;6.03;;
7263;SDS011;3673;52.480;13.348;2023-03-01T15:05:39;18.63;;;12.60;;
7263;SDS011;3673;52.480;13.348;2023-03-01T15:08:12;10.88;;;7.57;;
7263;SDS011;3673;52.480;13.348;2023-03-01T15:10:55;6.38;;;3.63;;
7263;SDS011;3673;52.480;13.348;2023-03-01T15:13:25;4.63;;;3.47;;
7263;SDS011;3673;52.480;13.348;2023-03-01T15:16:01;10.45;;;4.72;;
7263;SDS011;3673;52.480;13.348;2023-03-01T15:18:37;5.85;;;3.53;;
7263;SDS011;3673;52.480;13.348;2023-03-01T15:21:15;6.43;;;4.05;;
7263;SDS011;3673;52.480;13.348;2023-03-01T15:23:47;4.90;;;3.63;;
7263;SDS011;3673;52.480;13.348;2023-03-01T15:26:22;11.95;;;4.05;;
7263;SDS011;3673;52.480;13.348;2023-03-01T15:28:52;9.63;;;3.92;;
7263;SDS011;3673;52.480;13.348;2023-03-01T15:31:23;7.00;;;3.85;;
7263;SDS011;3673;52.480;13.348;2023-03-01T15:33:53;7.60;;;4.40;;